Roches Point, Ireland

7:41 AM IST on October 23, 2014 (GMT +0100)
Cobh - Riverside | Change Station
CLOSE
Current Station
Personal Weather Station
Location: Cork, CORK
Elevation: 69 ft
Nearby Weather Stations

Elev 69 ft 51.86 °N, 8.32 °W | Updated 1 minute ago

Overcast
Overcast
57.0 °F
Feels Like 57.0 °F
N
3.8
Wind Variable Wind from NW
Gusts 6.0 mph

Today
High -- | Low -- °F
--% Chance of Precip.
Yesterday
High -- | Low -- °F
Precip. -- in
8:11 AM 6:22 PM
Waning Crescent, 0% visible
Pressure 29.98 in
Visibility 5.0 miles
Clouds Few 200 ft
Mostly Cloudy 300 ft
Mostly Cloudy 800 ft
Dew Point 51 °F
Humidity 79%
Rainfall 0.00 in
Snow Depth Not available.
UV 0 out of 12
Pollen Not available.
Air Quality Not available.
Flu Activity Not available.
METAR EICK 230630Z 23011KT 8000 -DZ FEW002 BKN003 BKN008 13/13 Q1015 TEMPO 5000

More Conditions Fewer Conditions

Pressure 29.98 in
Visibility 5.0 miles
Clouds Few 200 ft
Mostly Cloudy 300 ft
Mostly Cloudy 800 ft
Dew Point 51 °F
Humidity 79%
Rainfall 0.00 in
Snow Depth Not available.
UV 0 out of 12
Pollen Not available.
Air Quality Not available.
Flu Activity Not available.
METAR EICK 230630Z 23011KT 8000 -DZ FEW002 BKN003 BKN008 13/13 Q1015 TEMPO 5000

More Conditions Fewer Conditions

10-Day Weather Forecast

Almanac

Astronomy

Oct. 23, 2014 Rise Set
Actual Time 8:11 AM IST 6:22 PM IST
Civil Twilight 7:36 AM IST 6:57 PM IST
Nautical Twilight 6:57 AM IST 7:36 PM IST
Astronomical Twilight 6:18 AM IST 8:15 PM IST
Moon 7:33 AM IST 6:17 PM IST
Length of Visible Light 11h 20m
Length of Day
10h 11m
Tomorrow will be 3m 47s shorter.
Waning Crescent, 0% of the Moon is Illuminated
Today
Waning Crescent
Oct 23
New
Oct 30
First Quarter
Nov 6
Full
Nov 14
Last Quarter

Yesterday's Extremes

Country Highs Country Lows

Community

WunderPhotos

Upload Photos

1,764,194 photos uploaded!

Nearby

Snow Depth

Not available.

Earthquake Activity

City Distance Mag. Time & Date
No recent earthquake activity has been reported nearby.
Minimum magnitude displayed is 2.5.

Coastal Water Temperatures

Place Temperature
No Stations Reporting

Nearby Weather Stations